(KWJF) General Wm J Fox Airfield

METAR

VFR

KWJF 281456Z 29007KT 10SM CLR 23/07 A3001 RMK AO2 SLP147 T02330067 50006

Time

Wind

290° at 7 kts

Visibility

10 sm

Clouds (AGL)

Clear Below 12,000'

Temperature

Dewpoint

Altimeter

30.01 inHg

Relative Humidity

Density Altitude

ATIS

126.3

Fox Ground

121.7

Fox Tower

118.525 (1500-0500)

Unicom

122.95

Joshua Approach

126.1

Airport Address

  • Fox Airfield
  • 4555 W. Avenue G
  • Lancaster, CA 93536-8401

Foxy's Landing Restaurant

  • (661) 949-2284

More Info